Milouin — FT9009 — position and weather

sailwx.info

Track history (hours):
 
Tides and Currents Weather Stations Pressure Air Temp Water Temp Dewpoint Dewpoint Depression Visibility Wind Speed Wind Dir Waves Ship Positions

Milouin

Last reported at 2018-Apr-19 09:54 UTC. Time now 2018-Apr-19 10:24 UTC.
Position N 47°17' W 002°01'.

Length 36 m; draft 2.5 m.

Type: Ship. MMSI: 227003190.

Date/timePositionNaut miles runAvg speedWind from/ knotsBaromVisibWave heightAir tempDewpointWater temp
2018-Apr-19 09:54N 47°17' W 002°01'0 0.0
2018-Apr-19 09:27N 47°17' W 002°01'0 0.0
2018-Apr-19 08:51N 47°17' W 002°01'0 0.0
2018-Apr-19 08:30N 47°17' W 002°01'0 0.0
2018-Apr-19 07:57N 47°17' W 002°01'0 0.0
2018-Apr-19 07:15N 47°17' W 002°01'0 0.0
2018-Apr-19 06:57N 47°17' W 002°01'0 0.0
2018-Apr-19 06:30N 47°17' W 002°01'0 0.0
2018-Apr-19 06:00N 47°17' W 002°01'0 0.0
2018-Apr-19 05:30N 47°17' W 002°01'0 0.0
2018-Apr-19 05:00N 47°17' W 002°01'0 0.0
2018-Apr-19 04:30N 47°17' W 002°01'0 0.0
2018-Apr-19 04:00N 47°17' W 002°01'0 0.0
2018-Apr-19 03:30N 47°17' W 002°01'0 0.0
2018-Apr-19 03:00N 47°17' W 002°01'0 0.0
2018-Apr-19 02:30N 47°17' W 002°01'0 0.0
2018-Apr-19 01:57N 47°17' W 002°01'0 0.0
2018-Apr-19 01:27N 47°17' W 002°01'0 0.0
2018-Apr-19 00:57N 47°17' W 002°01'0 0.0
2018-Apr-19 00:27N 47°17' W 002°01'0 0.0
2018-Apr-19 00:00N 47°17' W 002°01'0 0.0
2018-Apr-18 23:30N 47°17' W 002°01'0 0.0
2018-Apr-18 22:57N 47°17' W 002°01'0 0.0
2018-Apr-18 22:30N 47°17' W 002°01'0 0.0
2018-Apr-18 22:00N 47°17' W 002°01'0 0.0
2018-Apr-18 21:30N 47°17' W 002°01'0 0.0
2018-Apr-18 21:00N 47°17' W 002°01'0 0.0
2018-Apr-18 20:30N 47°17' W 002°01'0 0.0
2018-Apr-18 20:00N 47°17' W 002°01'0 0.0
2018-Apr-18 19:30N 47°17' W 002°01'0 0.0
2018-Apr-18 18:51N 47°17' W 002°01'0 0.0
2018-Apr-18 18:15N 47°17' W 002°01'0 0.0
2018-Apr-18 16:42N 47°17' W 002°01'0 0.1
2018-Apr-18 12:30N 47°17' W 002°02'3 5.5
2018-Apr-18 11:59N 47°18' W 002°06'1 2.8
2018-Apr-18 11:28N 47°18' W 002°08'0 0.1
2018-Apr-18 11:01N 47°18' W 002°08'0 0.1
2018-Apr-18 10:28N 47°18' W 002°08'0 0.1
2018-Apr-18 09:58N 47°18' W 002°08'0 0.1
2018-Apr-18 09:30N 47°18' W 002°08'0 0.1
2018-Apr-18 09:00N 47°18' W 002°08'0 0.0
2018-Apr-18 08:30N 47°18' W 002°08'0 0.2
2018-Apr-18 07:57N 47°18' W 002°08'0 0.0
2018-Apr-18 07:30N 47°18' W 002°08'0 0.2
2018-Apr-18 06:57N 47°18' W 002°08'0 0.2
2018-Apr-18 06:30N 47°18' W 002°08'0 0.1
2018-Apr-18 05:58N 47°18' W 002°08'1 2.0
2018-Apr-18 05:30N 47°18' W 002°06'4 7.4
2018-Apr-18 05:00N 47°17' W 002°01'0 0.1
2018-Apr-18 04:26N 47°17' W 002°01'0 0.0
2018-Apr-18 03:59N 47°17' W 002°01'0 0.0
2018-Apr-18 03:26N 47°17' W 002°01'0 0.0
2018-Apr-18 02:59N 47°17' W 002°01'0 0.0
2018-Apr-18 02:29N 47°17' W 002°01'0 0.0
2018-Apr-18 01:59N 47°17' W 002°01'0 0.0
2018-Apr-18 01:29N 47°17' W 002°01'0 0.0
2018-Apr-18 00:56N 47°17' W 002°01'0 0.0
2018-Apr-18 00:29N 47°17' W 002°01'0 0.0
2018-Apr-17 23:50N 47°17' W 002°01'0 0.0
2018-Apr-17 23:29N 47°17' W 002°01'0 0.0
2018-Apr-17 22:59N 47°17' W 002°01'0 0.0
2018-Apr-17 22:29N 47°17' W 002°01'0 0.0
2018-Apr-17 21:59N 47°17' W 002°01'0 0.0
2018-Apr-17 21:29N 47°17' W 002°01'0 0.0
2018-Apr-17 20:59N 47°17' W 002°01'0 0.0
2018-Apr-17 20:29N 47°17' W 002°01'0 0.0
2018-Apr-17 19:56N 47°17' W 002°01'0 0.0
2018-Apr-17 19:26N 47°17' W 002°01'0 0.0
2018-Apr-17 18:59N 47°17' W 002°01'0 0.0
2018-Apr-17 18:29N 47°17' W 002°01'0 0.0
2018-Apr-17 15:38N 47°17' W 002°01'0 0.0
2018-Apr-17 15:26N 47°17' W 002°01'0 0.0
2018-Apr-17 14:53N 47°17' W 002°01'0 0.0
2018-Apr-17 14:26N 47°17' W 002°01'0 0.0
2018-Apr-17 13:47N 47°17' W 002°01'0 0.0
2018-Apr-17 13:29N 47°17' W 002°01'0 0.0
2018-Apr-17 12:59N 47°17' W 002°01'0 0.0
2018-Apr-17 12:29N 47°17' W 002°01'0 0.0
2018-Apr-17 11:50N 47°17' W 002°01'0 0.0
2018-Apr-17 11:30N 47°17' W 002°01'2 3.1
2018-Apr-17 10:59N 47°18' W 002°03'0 0.7
2018-Apr-17 10:30N 47°18' W 002°04'0 0.3
2018-Apr-17 10:00N 47°18' W 002°03'0 0.6
2018-Apr-17 09:30N 47°18' W 002°04'0 0.1
2018-Apr-17 09:01N 47°18' W 002°04'0 0.6
2018-Apr-17 08:30N 47°18' W 002°03'0 0.1
2018-Apr-17 08:00N 47°18' W 002°03'0 0.2
2018-Apr-17 07:23N 47°18' W 002°03'0 0.1
2018-Apr-17 06:59N 47°18' W 002°03'0 0.5
2018-Apr-17 06:29N 47°18' W 002°04'0 0.1
2018-Apr-17 06:00N 47°18' W 002°04'2 3.9
2018-Apr-17 05:31N 47°17' W 002°01'0 0.3
2018-Apr-17 05:00N 47°17' W 002°01'0 0.0
2018-Apr-17 04:19N 47°17' W 002°01'0 0.0
2018-Apr-17 03:58N 47°17' W 002°01'0 0.0
2018-Apr-17 03:25N 47°17' W 002°01'0 0.0
2018-Apr-17 02:57N 47°17' W 002°01'0 0.0
2018-Apr-17 02:28N 47°17' W 002°01'0 0.0
2018-Apr-17 02:01N 47°17' W 002°01'0 0.0
2018-Apr-17 01:31N 47°17' W 002°01'0 0.0
2018-Apr-17 01:01N 47°17' W 002°01'0 0.0
2018-Apr-17 00:22N 47°17' W 002°01'0 0.0
2018-Apr-16 23:55N 47°17' W 002°01'0 0.0
2018-Apr-16 23:22N 47°17' W 002°01'0 0.0
2018-Apr-16 22:49N 47°17' W 002°01'0 0.0
2018-Apr-16 22:28N 47°17' W 002°01'0 0.0
2018-Apr-16 21:58N 47°17' W 002°01'0 0.0
2018-Apr-16 21:28N 47°17' W 002°01'0 0.0
2018-Apr-16 20:57N 47°17' W 002°01'0 0.0
2018-Apr-16 20:31N 47°17' W 002°01'0 0.0
2018-Apr-16 20:01N 47°17' W 002°01'0 0.0
2018-Apr-16 19:27N 47°17' W 002°01'0 0.0
2018-Apr-16 18:49N 47°17' W 002°01'0 0.0
2018-Apr-16 18:19N 47°17' W 002°01'0 0.0
2018-Apr-16 16:28N 47°17' W 002°01'0 0.0
2018-Apr-16 15:45N 47°17' W 002°01'0 0.0
2018-Apr-16 14:54N 47°17' W 002°01'0 0.0
2018-Apr-16 14:18N 47°17' W 002°01'0 0.0
2018-Apr-16 13:58N 47°17' W 002°01'0 0.0
2018-Apr-16 13:22N 47°17' W 002°01'0 0.0
2018-Apr-16 12:48N 47°17' W 002°01'0 0.0
2018-Apr-16 12:30N 47°17' W 002°01'0 0.0
2018-Apr-16 11:54N 47°17' W 002°01'0 0.0
2018-Apr-16 11:30N 47°17' W 002°01'0 0.0
2018-Apr-16 10:57N 47°17' W 002°01'1 2.8
2018-Apr-16 10:30N 47°18' W 002°03'1 1.2
2018-Apr-16 09:58N 47°18' W 002°04'0 0.8
2018-Apr-16 09:30N 47°18' W 002°03'0 0.0
2018-Apr-16 08:59N 47°18' W 002°03'0 0.8
2018-Apr-16 08:30N 47°18' W 002°04'0 0.9
2018-Apr-16 08:00N 47°18' W 002°03'0 0.1
2018-Apr-16 07:30N 47°18' W 002°03'0 0.1
2018-Apr-16 07:00N 47°18' W 002°03'0 0.0
2018-Apr-16 06:29N 47°18' W 002°03'0 0.1
2018-Apr-16 06:00N 47°18' W 002°03'0 0.1
2018-Apr-16 05:28N 47°18' W 002°03'1 2.8
2018-Apr-16 04:59N 47°17' W 002°01'0 0.0
2018-Apr-16 04:26N 47°17' W 002°01'0 0.0
2018-Apr-16 03:59N 47°17' W 002°01'0 0.0
2018-Apr-16 03:29N 47°17' W 002°01'0 0.0
2018-Apr-16 02:59N 47°17' W 002°01'0 0.0
2018-Apr-16 02:29N 47°17' W 002°01'0 0.0
2018-Apr-16 01:59N 47°17' W 002°01'0 0.0
2018-Apr-16 01:29N 47°17' W 002°01'0 0.0
2018-Apr-16 00:59N 47°17' W 002°01'0 0.0
2018-Apr-16 00:29N 47°17' W 002°01'0 0.0
2018-Apr-15 23:59N 47°17' W 002°01'0 0.0
2018-Apr-15 23:29N 47°17' W 002°01'0 0.0
2018-Apr-15 22:59N 47°17' W 002°01'0 0.0
2018-Apr-15 22:29N 47°17' W 002°01'0 0.0
2018-Apr-15 21:59N 47°17' W 002°01'0 0.0
2018-Apr-15 21:29N 47°17' W 002°01'0 0.0
2018-Apr-15 20:59N 47°17' W 002°01'0 0.0
2018-Apr-15 20:29N 47°17' W 002°01'0 0.0
2018-Apr-15 19:59N 47°17' W 002°01'0 0.0
2018-Apr-15 19:29N 47°17' W 002°01'0 0.0
2018-Apr-15 18:59N 47°17' W 002°01'0 0.0
2018-Apr-15 18:29N 47°17' W 002°01'0 0.0
2018-Apr-15 17:59N 47°17' W 002°01'0 0.0
2018-Apr-15 17:29N 47°17' W 002°01'0 0.0
2018-Apr-15 16:59N 47°17' W 002°01'0 0.0
2018-Apr-15 16:29N 47°17' W 002°01'0 0.0
2018-Apr-15 15:59N 47°17' W 002°01'0 0.0
2018-Apr-15 15:29N 47°17' W 002°01'0 0.0
2018-Apr-15 14:56N 47°17' W 002°01'0 0.0
2018-Apr-15 14:29N 47°17' W 002°01'0 0.0
2018-Apr-15 13:59N 47°17' W 002°01'0 0.0
2018-Apr-15 13:29N 47°17' W 002°01'0 0.0
2018-Apr-15 12:59N 47°17' W 002°01'0 0.0
2018-Apr-15 12:29N 47°17' W 002°01'0 0.0
2018-Apr-15 11:59N 47°17' W 002°01'0 0.0
2018-Apr-15 11:26N 47°17' W 002°01'0 0.0
2018-Apr-15 10:59N 47°17' W 002°01'0 0.0
2018-Apr-15 10:26N 47°17' W 002°01'0 0.0
2018-Apr-15 10:00N 47°17' W 002°01'0 0.8
2018-Apr-15 09:29N 47°18' W 002°01'4 7.7
2018-Apr-15 09:00N 47°17' W 001°55'510.2
2018-Apr-15 08:30N 47°14' W 001°50'510.9
2018-Apr-15 08:00N 47°12' W 001°42'4 7.0
2018-Apr-15 07:29N 47°12' W 001°37'0 0.6
2018-Apr-15 06:59N 47°12' W 001°37'0 0.5
2018-Apr-15 06:29N 47°12' W 001°37'1 2.0
2018-Apr-15 06:00N 47°11' W 001°39'3 5.1
2018-Apr-15 05:31N 47°12' W 001°42'2 4.5
2018-Apr-15 04:59N 47°12' W 001°46'0 0.0
2018-Apr-15 04:29N 47°12' W 001°46'0 0.0
2018-Apr-15 03:59N 47°12' W 001°46'0 0.0
2018-Apr-15 03:29N 47°12' W 001°46'0 0.0
2018-Apr-15 02:59N 47°12' W 001°46'0 0.0
2018-Apr-15 02:29N 47°12' W 001°46'0 0.0
2018-Apr-15 01:59N 47°12' W 001°46'0 0.0
2018-Apr-15 01:29N 47°12' W 001°46'0 0.0
2018-Apr-15 00:58N 47°12' W 001°46'0 0.0
2018-Apr-15 00:29N 47°12' W 001°46'0 0.0
2018-Apr-14 23:56N 47°12' W 001°46'0 0.0
2018-Apr-14 23:26N 47°12' W 001°46'0 0.0
2018-Apr-14 22:56N 47°12' W 001°46'0 0.0
2018-Apr-14 22:29N 47°12' W 001°46'0 0.0
2018-Apr-14 21:59N 47°12' W 001°46'0 0.0
2018-Apr-14 21:29N 47°12' W 001°46'0 0.0
2018-Apr-14 20:59N 47°12' W 001°46'0 0.0
2018-Apr-14 20:29N 47°12' W 001°46'0 0.0
2018-Apr-14 19:59N 47°12' W 001°46'0 0.0
2018-Apr-14 19:29N 47°12' W 001°46'0 0.0
2018-Apr-14 18:59N 47°12' W 001°46'0 0.0
2018-Apr-14 18:29N 47°12' W 001°46'0 0.0
2018-Apr-14 17:59N 47°12' W 001°46'0 0.0
2018-Apr-14 17:29N 47°12' W 001°46'0 0.0
2018-Apr-14 16:59N 47°12' W 001°46'0 0.0
2018-Apr-14 16:29N 47°12' W 001°46'0 0.0
2018-Apr-14 15:58N 47°12' W 001°46'0 0.0
2018-Apr-14 15:28N 47°12' W 001°46'0 0.0
2018-Apr-14 15:00N 47°12' W 001°46'4 7.5
2018-Apr-14 14:30N 47°14' W 001°50'4 8.3
2018-Apr-14 14:00N 47°17' W 001°55'4 7.4
2018-Apr-14 13:29N 47°17' W 002°01'0 0.0
2018-Apr-14 12:59N 47°17' W 002°01'0 0.0
2018-Apr-14 12:26N 47°17' W 002°01'0 0.0
2018-Apr-14 11:59N 47°17' W 002°01'0 0.0
2018-Apr-14 11:29N 47°17' W 002°01'0 0.0
2018-Apr-14 10:59N 47°17' W 002°01'0 0.0
2018-Apr-14 10:23N 47°17' W 002°01'0 0.0
2018-Apr-14 10:00N 47°17' W 002°01'3 5.8
2018-Apr-14 09:30N 47°18' W 002°05'2 4.7
2018-Apr-14 09:00N 47°18' W 002°09'1 1.0
2018-Apr-14 08:26N 47°18' W 002°09'0 0.1
2018-Apr-14 08:00N 47°18' W 002°10'0 0.0
2018-Apr-14 07:30N 47°18' W 002°09'0 0.0
2018-Apr-14 06:58N 47°18' W 002°09'0 0.0
2018-Apr-14 06:28N 47°18' W 002°09'0 0.0
2018-Apr-14 05:59N 47°18' W 002°09'2 3.8
2018-Apr-14 05:31N 47°18' W 002°07'4 7.3
2018-Apr-14 04:58N 47°17' W 002°01'0 0.0
2018-Apr-14 04:31N 47°17' W 002°01'0 0.0
2018-Apr-14 03:54N 47°17' W 002°01'0 0.0
2018-Apr-14 03:19N 47°17' W 002°01'0 0.0
2018-Apr-14 02:58N 47°17' W 002°01'0 0.0
2018-Apr-14 02:31N 47°17' W 002°01'0 0.0
2018-Apr-14 01:58N 47°17' W 002°01'0 0.0
2018-Apr-14 01:28N 47°17' W 002°01'0 0.0
2018-Apr-14 00:57N 47°17' W 002°01'0 0.0
2018-Apr-14 00:28N 47°17' W 002°01'0 0.0
2018-Apr-14 00:01N 47°17' W 002°01'0 0.0
2018-Apr-13 23:31N 47°17' W 002°01'0 0.0
2018-Apr-13 23:00N 47°17' W 002°01'0 0.0
2018-Apr-13 22:30N 47°17' W 002°01'0 0.0
2018-Apr-13 22:00N 47°17' W 002°01'0 0.0
2018-Apr-13 21:28N 47°17' W 002°01'0 0.0
2018-Apr-13 20:58N 47°17' W 002°01'0 0.0
2018-Apr-13 20:30N 47°17' W 002°01'0 0.0
2018-Apr-13 20:00N 47°17' W 002°01'0 0.0
2018-Apr-13 19:25N 47°17' W 002°01'0 0.0
2018-Apr-13 19:01N 47°17' W 002°01'0 0.0
2018-Apr-13 18:30N 47°17' W 002°01'0 0.0
2018-Apr-13 18:00N 47°17' W 002°01'0 0.0
2018-Apr-13 17:31N 47°17' W 002°01'0 0.0
2018-Apr-13 17:00N 47°17' W 002°01'1 1.2
2018-Apr-13 16:31N 47°18' W 002°02'1 1.4
2018-Apr-13 15:54N 47°18' W 002°03'0 0.4
2018-Apr-13 15:30N 47°18' W 002°03'0 0.3
2018-Apr-13 14:38N 47°18' W 002°04'0 0.9
2018-Apr-13 14:30N 47°18' W 002°04'2 3.7
2018-Apr-13 14:00N 47°17' W 002°01'0 0.2
2018-Apr-13 13:28N 47°17' W 002°01'0 0.0
2018-Apr-13 12:58N 47°17' W 002°01'0 0.0
2018-Apr-13 12:25N 47°17' W 002°01'0 0.0
2018-Apr-13 11:46N 47°17' W 002°01'0 0.0
2018-Apr-13 10:10N 47°17' W 002°01'0 0.0
2018-Apr-13 09:46N 47°17' W 002°01'0 0.0
2018-Apr-13 09:25N 47°17' W 002°01'0 0.0
2018-Apr-13 08:52N 47°17' W 002°01'1 3.4
2018-Apr-13 08:30N 47°18' W 002°03'0 0.6
2018-Apr-13 08:00N 47°18' W 002°03'0 0.5
2018-Apr-13 07:29N 47°18' W 002°03'0 0.8
2018-Apr-13 07:00N 47°18' W 002°03'0 0.1
2018-Apr-13 06:28N 47°18' W 002°03'0 0.1
2018-Apr-13 06:00N 47°18' W 002°03'0 0.9
2018-Apr-13 05:30N 47°18' W 002°04'2 3.6
2018-Apr-13 05:00N 47°17' W 002°01'0 0.0
2018-Apr-12 16:40N 47°17' W 002°01'1 4.8
2018-Apr-12 16:30N 47°18' W 002°02'1 1.0
2018-Apr-12 15:58N 47°18' W 002°03'0 0.8
2018-Apr-12 15:23N 47°18' W 002°04'0 1.0
2018-Apr-12 14:58N 47°18' W 002°03'0 0.6
2018-Apr-12 14:30N 47°18' W 002°03'0 0.0
2018-Apr-12 14:00N 47°18' W 002°03'1 1.1
2018-Apr-12 12:57N 47°17' W 002°01'0 0.0
2018-Apr-12 12:21N 47°17' W 002°01'0 0.0
2018-Apr-12 12:00N 47°17' W 002°01'0 0.0
2018-Apr-12 09:21N 47°17' W 002°01'0 0.0
2018-Apr-12 08:54N 47°17' W 002°01'0 0.0
2018-Apr-12 08:30N 47°17' W 002°01'0 0.7
2018-Apr-12 08:00N 47°18' W 002°01'0 0.6
2018-Apr-12 07:30N 47°18' W 002°02'0 0.3
2018-Apr-12 07:00N 47°18' W 002°01'0 0.4
2018-Apr-12 06:31N 47°18' W 002°02'0 0.1
2018-Apr-12 05:58N 47°18' W 002°02'0 0.3
2018-Apr-12 05:29N 47°18' W 002°01'0 1.0
2018-Apr-12 05:00N 47°17' W 002°01'0 0.0
2018-Apr-12 04:27N 47°17' W 002°01'0 0.0
2018-Apr-12 04:00N 47°17' W 002°01'0 0.0
2018-Apr-12 03:30N 47°17' W 002°01'0 0.0
2018-Apr-12 03:00N 47°17' W 002°01'0 0.0
2018-Apr-12 02:30N 47°17' W 002°01'0 0.0
2018-Apr-12 01:57N 47°17' W 002°01'0 0.0
2018-Apr-12 01:30N 47°17' W 002°01'0 0.0
2018-Apr-12 01:00N 47°17' W 002°01'0 0.0
2018-Apr-12 00:30N 47°17' W 002°01'0 0.0
2018-Apr-12 00:00N 47°17' W 002°01'0 0.0
2018-Apr-11 23:30N 47°17' W 002°01'0 0.0
2018-Apr-11 23:00N 47°17' W 002°01'0 0.0
2018-Apr-11 22:30N 47°17' W 002°01'0 0.0
2018-Apr-11 22:00N 47°17' W 002°01'0 0.0
2018-Apr-11 21:30N 47°17' W 002°01'0 0.0
2018-Apr-11 21:00N 47°17' W 002°01'0 0.0
2018-Apr-11 20:30N 47°17' W 002°01'0 0.0
2018-Apr-11 19:57N 47°17' W 002°01'0 0.0
2018-Apr-11 19:30N 47°17' W 002°01'0 0.0
2018-Apr-11 19:00N 47°17' W 002°01'0 0.0
2018-Apr-11 18:30N 47°17' W 002°01'0 0.0
2018-Apr-11 18:00N 47°17' W 002°01'0 0.0
2018-Apr-11 17:27N 47°17' W 002°01'0 0.0
2018-Apr-11 16:54N 47°17' W 002°01'0 0.6
2018-Apr-11 16:30N 47°17' W 002°01'0 0.5
2018-Apr-11 16:00N 47°18' W 002°01'0 0.1
2018-Apr-11 15:31N 47°17' W 002°01'0 0.2
2018-Apr-11 14:53N 47°18' W 002°01'0 0.5
2018-Apr-11 14:29N 47°17' W 002°00'0 0.3
2018-Apr-11 13:53N 47°18' W 002°01'0 0.1
2018-Apr-11 13:30N 47°18' W 002°01'0 0.3
2018-Apr-11 11:59N 47°17' W 002°01'0 0.0
2018-Apr-11 10:20N 47°17' W 002°01'0 0.0
2018-Apr-11 09:14N 47°17' W 002°01'0 0.0
2018-Apr-11 08:56N 47°17' W 002°01'0 0.0
2018-Apr-11 08:17N 47°17' W 002°01'0 0.0
2018-Apr-11 07:56N 47°17' W 002°01'0 0.0
2018-Apr-11 07:26N 47°17' W 002°01'1 1.2
2018-Apr-11 06:58N 47°17' W 002°00'0 0.2
2018-Apr-11 06:22N 47°18' W 002°01'0 0.4
2018-Apr-11 06:00N 47°18' W 002°01'0 0.2
2018-Apr-11 05:30N 47°18' W 002°01'0 0.7
2018-Apr-11 04:55N 47°17' W 002°01'0 0.0
2018-Apr-11 04:28N 47°17' W 002°01'0 0.0
2018-Apr-11 03:55N 47°17' W 002°01'0 0.0
2018-Apr-11 03:28N 47°17' W 002°01'0 0.0
2018-Apr-11 02:58N 47°17' W 002°01'0 0.0
2018-Apr-11 02:28N 47°17' W 002°01'0 0.0
2018-Apr-11 01:58N 47°17' W 002°01'0 0.0
2018-Apr-11 01:25N 47°17' W 002°01'0 0.0
2018-Apr-11 00:58N 47°17' W 002°01'0 0.0
2018-Apr-11 00:28N 47°17' W 002°01'0 0.0
2018-Apr-10 23:58N 47°17' W 002°01'0 0.0
2018-Apr-10 23:28N 47°17' W 002°01'0 0.0
2018-Apr-10 22:55N 47°17' W 002°01'0 0.0
2018-Apr-10 22:28N 47°17' W 002°01'0 0.0
2018-Apr-10 21:58N 47°17' W 002°01'0 0.0
2018-Apr-10 21:28N 47°17' W 002°01'0 0.0
2018-Apr-10 20:58N 47°17' W 002°01'0 0.0
2018-Apr-10 20:25N 47°17' W 002°01'0 0.0
2018-Apr-10 19:58N 47°17' W 002°01'0 0.0
2018-Apr-10 19:28N 47°17' W 002°01'0 0.0
2018-Apr-10 18:58N 47°17' W 002°01'0 0.0
2018-Apr-10 18:22N 47°17' W 002°01'0 0.0
2018-Apr-10 17:58N 47°17' W 002°01'0 0.0
2018-Apr-10 17:25N 47°17' W 002°01'0 0.0
2018-Apr-10 16:58N 47°17' W 002°01'0 0.2
2018-Apr-10 16:30N 47°17' W 002°01'0 0.8
2018-Apr-10 15:56N 47°17' W 002°01'0 0.4
2018-Apr-10 15:29N 47°18' W 002°01'0 0.2
2018-Apr-10 15:00N 47°18' W 002°01'0 0.1
2018-Apr-10 14:30N 47°18' W 002°01'0 0.3
2018-Apr-10 14:00N 47°17' W 002°00'0 0.3
2018-Apr-10 13:30N 47°18' W 002°01'0 0.1
2018-Apr-10 13:00N 47°18' W 002°01'0 0.9
2018-Apr-10 12:30N 47°17' W 002°01'0 0.0
2018-Apr-10 11:55N 47°17' W 002°01'0 0.0
2018-Apr-10 11:28N 47°17' W 002°01'0 0.0
2018-Apr-10 10:58N 47°17' W 002°01'0 0.0
2018-Apr-10 10:31N 47°17' W 002°01'0 0.0
2018-Apr-10 09:46N 47°17' W 002°01'0 0.0
2018-Apr-10 09:25N 47°17' W 002°01'0 0.0
2018-Apr-10 08:58N 47°17' W 002°01'0 0.0
2018-Apr-10 08:28N 47°17' W 002°01'0 0.0
2018-Apr-10 08:00N 47°17' W 002°01'0 0.0
2018-Apr-10 07:28N 47°17' W 002°01'0 0.0
2018-Apr-10 06:58N 47°17' W 002°01'0 0.0
2018-Apr-10 06:30N 47°17' W 002°01'0 0.0
2018-Apr-10 06:01N 47°17' W 002°01'0 0.0
2018-Apr-10 05:31N 47°17' W 002°01'0 0.0
2018-Apr-10 04:57N 47°17' W 002°01'0 0.0
2018-Apr-10 04:21N 47°17' W 002°01'0 0.0
2018-Apr-10 04:01N 47°17' W 002°01'0 0.0
2018-Apr-10 03:28N 47°17' W 002°01'0 0.0
2018-Apr-10 03:00N 47°17' W 002°01'0 0.0
2018-Apr-10 02:25N 47°17' W 002°01'0 0.0
2018-Apr-10 02:00N 47°17' W 002°01'0 0.0
2018-Apr-10 01:31N 47°17' W 002°01'0 0.0
2018-Apr-10 01:01N 47°17' W 002°01'0 0.0
2018-Apr-10 00:30N 47°17' W 002°01'0 0.0
2018-Apr-10 00:00N 47°17' W 002°01'0 0.0
2018-Apr-09 23:30N 47°17' W 002°01'0 0.0
2018-Apr-09 23:00N 47°17' W 002°01'0 0.0
2018-Apr-09 22:06N 47°17' W 002°01'0 0.0
2018-Apr-09 21:58N 47°17' W 002°01'0 0.0
2018-Apr-09 21:21N 47°17' W 002°01'0 0.0
2018-Apr-09 20:58N 47°17' W 002°01'0 0.0
2018-Apr-09 20:31N 47°17' W 002°01'0 0.0
2018-Apr-09 19:54N 47°17' W 002°01'0 0.0
2018-Apr-09 19:30N 47°17' W 002°01'0 0.0
2018-Apr-09 19:00N 47°17' W 002°01'0 0.0
2018-Apr-09 18:30N 47°17' W 002°01'0 0.0
2018-Apr-09 18:00N 47°17' W 002°01'0 0.0
2018-Apr-09 17:24N 47°17' W 002°01'0 0.0
2018-Apr-09 16:57N 47°17' W 002°01'0 0.0
2018-Apr-09 16:24N 47°17' W 002°01'0 0.0
2018-Apr-09 15:58N 47°17' W 002°01'2 5.0
2018-Apr-09 15:30N 47°18' W 002°04'5 1.2
2018-Apr-09 11:14N 47°16' W 002°12'1 5.5
2018-Apr-09 11:00N 47°17' W 002°10'4 8.7
2018-Apr-09 10:30N 47°18' W 002°04'  
Track history (hours):
 
Tides and Currents Weather Stations Pressure Air Temp Water Temp Dewpoint Dewpoint Depression Visibility Wind Speed Wind Dir Waves Ship Positions

Milouin

Last reported at 2018-Apr-19 09:54 UTC. Time now 2018-Apr-19 10:24 UTC.
Position N 47°17' W 002°01'.

Length 36 m; draft 2.5 m.

Type: Ship. MMSI: 227003190.

Date/timePositionNaut miles runAvg speedWind from/ knotsBaromVisibWave heightAir tempDewpointWater temp
2018-Apr-19 09:54N 47°17' W 002°01'0 0.0
2018-Apr-19 09:27N 47°17' W 002°01'0 0.0
2018-Apr-19 08:51N 47°17' W 002°01'0 0.0
2018-Apr-19 08:30N 47°17' W 002°01'0 0.0
2018-Apr-19 07:57N 47°17' W 002°01'0 0.0
2018-Apr-19 07:15N 47°17' W 002°01'0 0.0
2018-Apr-19 06:57N 47°17' W 002°01'0 0.0
2018-Apr-19 06:30N 47°17' W 002°01'0 0.0
2018-Apr-19 06:00N 47°17' W 002°01'0 0.0
2018-Apr-19 05:30N 47°17' W 002°01'0 0.0
2018-Apr-19 05:00N 47°17' W 002°01'0 0.0
2018-Apr-19 04:30N 47°17' W 002°01'0 0.0
2018-Apr-19 04:00N 47°17' W 002°01'0 0.0
2018-Apr-19 03:30N 47°17' W 002°01'0 0.0
2018-Apr-19 03:00N 47°17' W 002°01'0 0.0
2018-Apr-19 02:30N 47°17' W 002°01'0 0.0
2018-Apr-19 01:57N 47°17' W 002°01'0 0.0
2018-Apr-19 01:27N 47°17' W 002°01'0 0.0
2018-Apr-19 00:57N 47°17' W 002°01'0 0.0
2018-Apr-19 00:27N 47°17' W 002°01'0 0.0
2018-Apr-19 00:00N 47°17' W 002°01'0 0.0
2018-Apr-18 23:30N 47°17' W 002°01'0 0.0
2018-Apr-18 22:57N 47°17' W 002°01'0 0.0
2018-Apr-18 22:30N 47°17' W 002°01'0 0.0
2018-Apr-18 22:00N 47°17' W 002°01'0 0.0
2018-Apr-18 21:30N 47°17' W 002°01'0 0.0
2018-Apr-18 21:00N 47°17' W 002°01'0 0.0
2018-Apr-18 20:30N 47°17' W 002°01'0 0.0
2018-Apr-18 20:00N 47°17' W 002°01'0 0.0
2018-Apr-18 19:30N 47°17' W 002°01'0 0.0
2018-Apr-18 18:51N 47°17' W 002°01'0 0.0
2018-Apr-18 18:15N 47°17' W 002°01'0 0.0
2018-Apr-18 16:42N 47°17' W 002°01'0 0.1
2018-Apr-18 12:30N 47°17' W 002°02'3 5.5
2018-Apr-18 11:59N 47°18' W 002°06'1 2.8
2018-Apr-18 11:28N 47°18' W 002°08'0 0.1
2018-Apr-18 11:01N 47°18' W 002°08'0 0.1
2018-Apr-18 10:28N 47°18' W 002°08'0 0.1
2018-Apr-18 09:58N 47°18' W 002°08'0 0.1
2018-Apr-18 09:30N 47°18' W 002°08'0 0.1
2018-Apr-18 09:00N 47°18' W 002°08'0 0.0
2018-Apr-18 08:30N 47°18' W 002°08'0 0.2
2018-Apr-18 07:57N 47°18' W 002°08'0 0.0
2018-Apr-18 07:30N 47°18' W 002°08'0 0.2
2018-Apr-18 06:57N 47°18' W 002°08'0 0.2
2018-Apr-18 06:30N 47°18' W 002°08'0 0.1
2018-Apr-18 05:58N 47°18' W 002°08'1 2.0
2018-Apr-18 05:30N 47°18' W 002°06'4 7.4
2018-Apr-18 05:00N 47°17' W 002°01'0 0.1
2018-Apr-18 04:26N 47°17' W 002°01'0 0.0
2018-Apr-18 03:59N 47°17' W 002°01'0 0.0
2018-Apr-18 03:26N 47°17' W 002°01'0 0.0
2018-Apr-18 02:59N 47°17' W 002°01'0 0.0
2018-Apr-18 02:29N 47°17' W 002°01'0 0.0
2018-Apr-18 01:59N 47°17' W 002°01'0 0.0
2018-Apr-18 01:29N 47°17' W 002°01'0 0.0
2018-Apr-18 00:56N 47°17' W 002°01'0 0.0
2018-Apr-18 00:29N 47°17' W 002°01'0 0.0
2018-Apr-17 23:50N 47°17' W 002°01'0 0.0
2018-Apr-17 23:29N 47°17' W 002°01'0 0.0
2018-Apr-17 22:59N 47°17' W 002°01'0 0.0
2018-Apr-17 22:29N 47°17' W 002°01'0 0.0
2018-Apr-17 21:59N 47°17' W 002°01'0 0.0
2018-Apr-17 21:29N 47°17' W 002°01'0 0.0
2018-Apr-17 20:59N 47°17' W 002°01'0 0.0
2018-Apr-17 20:29N 47°17' W 002°01'0 0.0
2018-Apr-17 19:56N 47°17' W 002°01'0 0.0
2018-Apr-17 19:26N 47°17' W 002°01'0 0.0
2018-Apr-17 18:59N 47°17' W 002°01'0 0.0
2018-Apr-17 18:29N 47°17' W 002°01'0 0.0
2018-Apr-17 15:38N 47°17' W 002°01'0 0.0
2018-Apr-17 15:26N 47°17' W 002°01'0 0.0
2018-Apr-17 14:53N 47°17' W 002°01'0 0.0
2018-Apr-17 14:26N 47°17' W 002°01'0 0.0
2018-Apr-17 13:47N 47°17' W 002°01'0 0.0
2018-Apr-17 13:29N 47°17' W 002°01'0 0.0
2018-Apr-17 12:59N 47°17' W 002°01'0 0.0
2018-Apr-17 12:29N 47°17' W 002°01'0 0.0
2018-Apr-17 11:50N 47°17' W 002°01'0 0.0
2018-Apr-17 11:30N 47°17' W 002°01'2 3.1
2018-Apr-17 10:59N 47°18' W 002°03'0 0.7
2018-Apr-17 10:30N 47°18' W 002°04'0 0.3
2018-Apr-17 10:00N 47°18' W 002°03'0 0.6
2018-Apr-17 09:30N 47°18' W 002°04'0 0.1
2018-Apr-17 09:01N 47°18' W 002°04'0 0.6
2018-Apr-17 08:30N 47°18' W 002°03'0 0.1
2018-Apr-17 08:00N 47°18' W 002°03'0 0.2
2018-Apr-17 07:23N 47°18' W 002°03'0 0.1
2018-Apr-17 06:59N 47°18' W 002°03'0 0.5
2018-Apr-17 06:29N 47°18' W 002°04'0 0.1
2018-Apr-17 06:00N 47°18' W 002°04'2 3.9
2018-Apr-17 05:31N 47°17' W 002°01'0 0.3
2018-Apr-17 05:00N 47°17' W 002°01'0 0.0
2018-Apr-17 04:19N 47°17' W 002°01'0 0.0
2018-Apr-17 03:58N 47°17' W 002°01'0 0.0
2018-Apr-17 03:25N 47°17' W 002°01'0 0.0
2018-Apr-17 02:57N 47°17' W 002°01'0 0.0
2018-Apr-17 02:28N 47°17' W 002°01'0 0.0
2018-Apr-17 02:01N 47°17' W 002°01'0 0.0
2018-Apr-17 01:31N 47°17' W 002°01'0 0.0
2018-Apr-17 01:01N 47°17' W 002°01'0 0.0
2018-Apr-17 00:22N 47°17' W 002°01'0 0.0
2018-Apr-16 23:55N 47°17' W 002°01'0 0.0
2018-Apr-16 23:22N 47°17' W 002°01'0 0.0
2018-Apr-16 22:49N 47°17' W 002°01'0 0.0
2018-Apr-16 22:28N 47°17' W 002°01'0 0.0
2018-Apr-16 21:58N 47°17' W 002°01'0 0.0
2018-Apr-16 21:28N 47°17' W 002°01'0 0.0
2018-Apr-16 20:57N 47°17' W 002°01'0 0.0
2018-Apr-16 20:31N 47°17' W 002°01'0 0.0
2018-Apr-16 20:01N 47°17' W 002°01'0 0.0
2018-Apr-16 19:27N 47°17' W 002°01'0 0.0
2018-Apr-16 18:49N 47°17' W 002°01'0 0.0
2018-Apr-16 18:19N 47°17' W 002°01'0 0.0
2018-Apr-16 16:28N 47°17' W 002°01'0 0.0
2018-Apr-16 15:45N 47°17' W 002°01'0 0.0
2018-Apr-16 14:54N 47°17' W 002°01'0 0.0
2018-Apr-16 14:18N 47°17' W 002°01'0 0.0
2018-Apr-16 13:58N 47°17' W 002°01'0 0.0
2018-Apr-16 13:22N 47°17' W 002°01'0 0.0
2018-Apr-16 12:48N 47°17' W 002°01'0 0.0
2018-Apr-16 12:30N 47°17' W 002°01'0 0.0
2018-Apr-16 11:54N 47°17' W 002°01'0 0.0
2018-Apr-16 11:30N 47°17' W 002°01'0 0.0
2018-Apr-16 10:57N 47°17' W 002°01'1 2.8
2018-Apr-16 10:30N 47°18' W 002°03'1 1.2
2018-Apr-16 09:58N 47°18' W 002°04'0 0.8
2018-Apr-16 09:30N 47°18' W 002°03'0 0.0
2018-Apr-16 08:59N 47°18' W 002°03'0 0.8
2018-Apr-16 08:30N 47°18' W 002°04'0 0.9
2018-Apr-16 08:00N 47°18' W 002°03'0 0.1
2018-Apr-16 07:30N 47°18' W 002°03'0 0.1
2018-Apr-16 07:00N 47°18' W 002°03'0 0.0
2018-Apr-16 06:29N 47°18' W 002°03'0 0.1
2018-Apr-16 06:00N 47°18' W 002°03'0 0.1
2018-Apr-16 05:28N 47°18' W 002°03'1 2.8
2018-Apr-16 04:59N 47°17' W 002°01'0 0.0
2018-Apr-16 04:26N 47°17' W 002°01'0 0.0
2018-Apr-16 03:59N 47°17' W 002°01'0 0.0
2018-Apr-16 03:29N 47°17' W 002°01'0 0.0
2018-Apr-16 02:59N 47°17' W 002°01'0 0.0
2018-Apr-16 02:29N 47°17' W 002°01'0 0.0
2018-Apr-16 01:59N 47°17' W 002°01'0 0.0
2018-Apr-16 01:29N 47°17' W 002°01'0 0.0
2018-Apr-16 00:59N 47°17' W 002°01'0 0.0
2018-Apr-16 00:29N 47°17' W 002°01'0 0.0
2018-Apr-15 23:59N 47°17' W 002°01'0 0.0
2018-Apr-15 23:29N 47°17' W 002°01'0 0.0
2018-Apr-15 22:59N 47°17' W 002°01'0 0.0
2018-Apr-15 22:29N 47°17' W 002°01'0 0.0
2018-Apr-15 21:59N 47°17' W 002°01'0 0.0
2018-Apr-15 21:29N 47°17' W 002°01'0 0.0
2018-Apr-15 20:59N 47°17' W 002°01'0 0.0
2018-Apr-15 20:29N 47°17' W 002°01'0 0.0
2018-Apr-15 19:59N 47°17' W 002°01'0 0.0
2018-Apr-15 19:29N 47°17' W 002°01'0 0.0
2018-Apr-15 18:59N 47°17' W 002°01'0 0.0
2018-Apr-15 18:29N 47°17' W 002°01'0 0.0
2018-Apr-15 17:59N 47°17' W 002°01'0 0.0
2018-Apr-15 17:29N 47°17' W 002°01'0 0.0
2018-Apr-15 16:59N 47°17' W 002°01'0 0.0
2018-Apr-15 16:29N 47°17' W 002°01'0 0.0
2018-Apr-15 15:59N 47°17' W 002°01'0 0.0
2018-Apr-15 15:29N 47°17' W 002°01'0 0.0
2018-Apr-15 14:56N 47°17' W 002°01'0 0.0
2018-Apr-15 14:29N 47°17' W 002°01'0 0.0
2018-Apr-15 13:59N 47°17' W 002°01'0 0.0
2018-Apr-15 13:29N 47°17' W 002°01'0 0.0
2018-Apr-15 12:59N 47°17' W 002°01'0 0.0
2018-Apr-15 12:29N 47°17' W 002°01'0 0.0
2018-Apr-15 11:59N 47°17' W 002°01'0 0.0
2018-Apr-15 11:26N 47°17' W 002°01'0 0.0
2018-Apr-15 10:59N 47°17' W 002°01'0 0.0
2018-Apr-15 10:26N 47°17' W 002°01'0 0.0
2018-Apr-15 10:00N 47°17' W 002°01'0 0.8
2018-Apr-15 09:29N 47°18' W 002°01'4 7.7
2018-Apr-15 09:00N 47°17' W 001°55'510.2
2018-Apr-15 08:30N 47°14' W 001°50'510.9
2018-Apr-15 08:00N 47°12' W 001°42'4 7.0
2018-Apr-15 07:29N 47°12' W 001°37'0 0.6
2018-Apr-15 06:59N 47°12' W 001°37'0 0.5
2018-Apr-15 06:29N 47°12' W 001°37'1 2.0
2018-Apr-15 06:00N 47°11' W 001°39'3 5.1
2018-Apr-15 05:31N 47°12' W 001°42'2 4.5
2018-Apr-15 04:59N 47°12' W 001°46'0 0.0
2018-Apr-15 04:29N 47°12' W 001°46'0 0.0
2018-Apr-15 03:59N 47°12' W 001°46'0 0.0
2018-Apr-15 03:29N 47°12' W 001°46'0 0.0
2018-Apr-15 02:59N 47°12' W 001°46'0 0.0
2018-Apr-15 02:29N 47°12' W 001°46'0 0.0
2018-Apr-15 01:59N 47°12' W 001°46'0 0.0
2018-Apr-15 01:29N 47°12' W 001°46'0 0.0
2018-Apr-15 00:58N 47°12' W 001°46'0 0.0
2018-Apr-15 00:29N 47°12' W 001°46'0 0.0
2018-Apr-14 23:56N 47°12' W 001°46'0 0.0
2018-Apr-14 23:26N 47°12' W 001°46'0 0.0
2018-Apr-14 22:56N 47°12' W 001°46'0 0.0
2018-Apr-14 22:29N 47°12' W 001°46'0 0.0
2018-Apr-14 21:59N 47°12' W 001°46'0 0.0
2018-Apr-14 21:29N 47°12' W 001°46'0 0.0
2018-Apr-14 20:59N 47°12' W 001°46'0 0.0
2018-Apr-14 20:29N 47°12' W 001°46'0 0.0
2018-Apr-14 19:59N 47°12' W 001°46'0 0.0
2018-Apr-14 19:29N 47°12' W 001°46'0 0.0
2018-Apr-14 18:59N 47°12' W 001°46'0 0.0
2018-Apr-14 18:29N 47°12' W 001°46'0 0.0
2018-Apr-14 17:59N 47°12' W 001°46'0 0.0
2018-Apr-14 17:29N 47°12' W 001°46'0 0.0
2018-Apr-14 16:59N 47°12' W 001°46'0 0.0
2018-Apr-14 16:29N 47°12' W 001°46'0 0.0
2018-Apr-14 15:58N 47°12' W 001°46'0 0.0
2018-Apr-14 15:28N 47°12' W 001°46'0 0.0
2018-Apr-14 15:00N 47°12' W 001°46'4 7.5
2018-Apr-14 14:30N 47°14' W 001°50'4 8.3
2018-Apr-14 14:00N 47°17' W 001°55'4 7.4
2018-Apr-14 13:29N 47°17' W 002°01'0 0.0
2018-Apr-14 12:59N 47°17' W 002°01'0 0.0
2018-Apr-14 12:26N 47°17' W 002°01'0 0.0
2018-Apr-14 11:59N 47°17' W 002°01'0 0.0
2018-Apr-14 11:29N 47°17' W 002°01'0 0.0
2018-Apr-14 10:59N 47°17' W 002°01'0 0.0
2018-Apr-14 10:23N 47°17' W 002°01'0 0.0
2018-Apr-14 10:00N 47°17' W 002°01'3 5.8
2018-Apr-14 09:30N 47°18' W 002°05'2 4.7
2018-Apr-14 09:00N 47°18' W 002°09'1 1.0
2018-Apr-14 08:26N 47°18' W 002°09'0 0.1
2018-Apr-14 08:00N 47°18' W 002°10'0 0.0
2018-Apr-14 07:30N 47°18' W 002°09'0 0.0
2018-Apr-14 06:58N 47°18' W 002°09'0 0.0
2018-Apr-14 06:28N 47°18' W 002°09'0 0.0
2018-Apr-14 05:59N 47°18' W 002°09'2 3.8
2018-Apr-14 05:31N 47°18' W 002°07'4 7.3
2018-Apr-14 04:58N 47°17' W 002°01'0 0.0
2018-Apr-14 04:31N 47°17' W 002°01'0 0.0
2018-Apr-14 03:54N 47°17' W 002°01'0 0.0
2018-Apr-14 03:19N 47°17' W 002°01'0 0.0
2018-Apr-14 02:58N 47°17' W 002°01'0 0.0
2018-Apr-14 02:31N 47°17' W 002°01'0 0.0
2018-Apr-14 01:58N 47°17' W 002°01'0 0.0
2018-Apr-14 01:28N 47°17' W 002°01'0 0.0
2018-Apr-14 00:57N 47°17' W 002°01'0 0.0
2018-Apr-14 00:28N 47°17' W 002°01'0 0.0
2018-Apr-14 00:01N 47°17' W 002°01'0 0.0
2018-Apr-13 23:31N 47°17' W 002°01'0 0.0
2018-Apr-13 23:00N 47°17' W 002°01'0 0.0
2018-Apr-13 22:30N 47°17' W 002°01'0 0.0
2018-Apr-13 22:00N 47°17' W 002°01'0 0.0
2018-Apr-13 21:28N 47°17' W 002°01'0 0.0
2018-Apr-13 20:58N 47°17' W 002°01'0 0.0
2018-Apr-13 20:30N 47°17' W 002°01'0 0.0
2018-Apr-13 20:00N 47°17' W 002°01'0 0.0
2018-Apr-13 19:25N 47°17' W 002°01'0 0.0
2018-Apr-13 19:01N 47°17' W 002°01'0 0.0
2018-Apr-13 18:30N 47°17' W 002°01'0 0.0
2018-Apr-13 18:00N 47°17' W 002°01'0 0.0
2018-Apr-13 17:31N 47°17' W 002°01'0 0.0
2018-Apr-13 17:00N 47°17' W 002°01'1 1.2
2018-Apr-13 16:31N 47°18' W 002°02'1 1.4
2018-Apr-13 15:54N 47°18' W 002°03'0 0.4
2018-Apr-13 15:30N 47°18' W 002°03'0 0.3
2018-Apr-13 14:38N 47°18' W 002°04'0 0.9
2018-Apr-13 14:30N 47°18' W 002°04'2 3.7
2018-Apr-13 14:00N 47°17' W 002°01'0 0.2
2018-Apr-13 13:28N 47°17' W 002°01'0 0.0
2018-Apr-13 12:58N 47°17' W 002°01'0 0.0
2018-Apr-13 12:25N 47°17' W 002°01'0 0.0
2018-Apr-13 11:46N 47°17' W 002°01'0 0.0
2018-Apr-13 10:10N 47°17' W 002°01'0 0.0
2018-Apr-13 09:46N 47°17' W 002°01'0 0.0
2018-Apr-13 09:25N 47°17' W 002°01'0 0.0
2018-Apr-13 08:52N 47°17' W 002°01'1 3.4
2018-Apr-13 08:30N 47°18' W 002°03'0 0.6
2018-Apr-13 08:00N 47°18' W 002°03'0 0.5
2018-Apr-13 07:29N 47°18' W 002°03'0 0.8
2018-Apr-13 07:00N 47°18' W 002°03'0 0.1
2018-Apr-13 06:28N 47°18' W 002°03'0 0.1
2018-Apr-13 06:00N 47°18' W 002°03'0 0.9
2018-Apr-13 05:30N 47°18' W 002°04'2 3.6
2018-Apr-13 05:00N 47°17' W 002°01'0 0.0
2018-Apr-12 16:40N 47°17' W 002°01'1 4.8
2018-Apr-12 16:30N 47°18' W 002°02'1 1.0
2018-Apr-12 15:58N 47°18' W 002°03'0 0.8
2018-Apr-12 15:23N 47°18' W 002°04'0 1.0
2018-Apr-12 14:58N 47°18' W 002°03'0 0.6
2018-Apr-12 14:30N 47°18' W 002°03'0 0.0
2018-Apr-12 14:00N 47°18' W 002°03'1 1.1
2018-Apr-12 12:57N 47°17' W 002°01'0 0.0
2018-Apr-12 12:21N 47°17' W 002°01'0 0.0
2018-Apr-12 12:00N 47°17' W 002°01'0 0.0
2018-Apr-12 09:21N 47°17' W 002°01'0 0.0
2018-Apr-12 08:54N 47°17' W 002°01'0 0.0
2018-Apr-12 08:30N 47°17' W 002°01'0 0.7
2018-Apr-12 08:00N 47°18' W 002°01'0 0.6
2018-Apr-12 07:30N 47°18' W 002°02'0 0.3
2018-Apr-12 07:00N 47°18' W 002°01'0 0.4
2018-Apr-12 06:31N 47°18' W 002°02'0 0.1
2018-Apr-12 05:58N 47°18' W 002°02'0 0.3
2018-Apr-12 05:29N 47°18' W 002°01'0 1.0
2018-Apr-12 05:00N 47°17' W 002°01'0 0.0
2018-Apr-12 04:27N 47°17' W 002°01'0 0.0
2018-Apr-12 04:00N 47°17' W 002°01'0 0.0
2018-Apr-12 03:30N 47°17' W 002°01'0 0.0
2018-Apr-12 03:00N 47°17' W 002°01'0 0.0
2018-Apr-12 02:30N 47°17' W 002°01'0 0.0
2018-Apr-12 01:57N 47°17' W 002°01'0 0.0
2018-Apr-12 01:30N 47°17' W 002°01'0 0.0
2018-Apr-12 01:00N 47°17' W 002°01'0 0.0
2018-Apr-12 00:30N 47°17' W 002°01'0 0.0
2018-Apr-12 00:00N 47°17' W 002°01'0 0.0
2018-Apr-11 23:30N 47°17' W 002°01'0 0.0
2018-Apr-11 23:00N 47°17' W 002°01'0 0.0
2018-Apr-11 22:30N 47°17' W 002°01'0 0.0
2018-Apr-11 22:00N 47°17' W 002°01'0 0.0
2018-Apr-11 21:30N 47°17' W 002°01'0 0.0
2018-Apr-11 21:00N 47°17' W 002°01'0 0.0
2018-Apr-11 20:30N 47°17' W 002°01'0 0.0
2018-Apr-11 19:57N 47°17' W 002°01'0 0.0
2018-Apr-11 19:30N 47°17' W 002°01'0 0.0
2018-Apr-11 19:00N 47°17' W 002°01'0 0.0
2018-Apr-11 18:30N 47°17' W 002°01'0 0.0
2018-Apr-11 18:00N 47°17' W 002°01'0 0.0
2018-Apr-11 17:27N 47°17' W 002°01'0 0.0
2018-Apr-11 16:54N 47°17' W 002°01'0 0.6
2018-Apr-11 16:30N 47°17' W 002°01'0 0.5
2018-Apr-11 16:00N 47°18' W 002°01'0 0.1
2018-Apr-11 15:31N 47°17' W 002°01'0 0.2
2018-Apr-11 14:53N 47°18' W 002°01'0 0.5
2018-Apr-11 14:29N 47°17' W 002°00'0 0.3
2018-Apr-11 13:53N 47°18' W 002°01'0 0.1
2018-Apr-11 13:30N 47°18' W 002°01'0 0.3
2018-Apr-11 11:59N 47°17' W 002°01'0 0.0
2018-Apr-11 10:20N 47°17' W 002°01'0 0.0
2018-Apr-11 09:14N 47°17' W 002°01'0 0.0
2018-Apr-11 08:56N 47°17' W 002°01'0 0.0
2018-Apr-11 08:17N 47°17' W 002°01'0 0.0
2018-Apr-11 07:56N 47°17' W 002°01'0 0.0
2018-Apr-11 07:26N 47°17' W 002°01'1 1.2
2018-Apr-11 06:58N 47°17' W 002°00'0 0.2
2018-Apr-11 06:22N 47°18' W 002°01'0 0.4
2018-Apr-11 06:00N 47°18' W 002°01'0 0.2
2018-Apr-11 05:30N 47°18' W 002°01'0 0.7
2018-Apr-11 04:55N 47°17' W 002°01'0 0.0
2018-Apr-11 04:28N 47°17' W 002°01'0 0.0
2018-Apr-11 03:55N 47°17' W 002°01'0 0.0
2018-Apr-11 03:28N 47°17' W 002°01'0 0.0
2018-Apr-11 02:58N 47°17' W 002°01'0 0.0
2018-Apr-11 02:28N 47°17' W 002°01'0 0.0
2018-Apr-11 01:58N 47°17' W 002°01'0 0.0
2018-Apr-11 01:25N 47°17' W 002°01'0 0.0
2018-Apr-11 00:58N 47°17' W 002°01'0 0.0
2018-Apr-11 00:28N 47°17' W 002°01'0 0.0
2018-Apr-10 23:58N 47°17' W 002°01'0 0.0
2018-Apr-10 23:28N 47°17' W 002°01'0 0.0
2018-Apr-10 22:55N 47°17' W 002°01'0 0.0
2018-Apr-10 22:28N 47°17' W 002°01'0 0.0
2018-Apr-10 21:58N 47°17' W 002°01'0 0.0
2018-Apr-10 21:28N 47°17' W 002°01'0 0.0
2018-Apr-10 20:58N 47°17' W 002°01'0 0.0
2018-Apr-10 20:25N 47°17' W 002°01'0 0.0
2018-Apr-10 19:58N 47°17' W 002°01'0 0.0
2018-Apr-10 19:28N 47°17' W 002°01'0 0.0
2018-Apr-10 18:58N 47°17' W 002°01'0 0.0
2018-Apr-10 18:22N 47°17' W 002°01'0 0.0
2018-Apr-10 17:58N 47°17' W 002°01'0 0.0
2018-Apr-10 17:25N 47°17' W 002°01'0 0.0
2018-Apr-10 16:58N 47°17' W 002°01'0 0.2
2018-Apr-10 16:30N 47°17' W 002°01'0 0.8
2018-Apr-10 15:56N 47°17' W 002°01'0 0.4
2018-Apr-10 15:29N 47°18' W 002°01'0 0.2
2018-Apr-10 15:00N 47°18' W 002°01'0 0.1
2018-Apr-10 14:30N 47°18' W 002°01'0 0.3
2018-Apr-10 14:00N 47°17' W 002°00'0 0.3
2018-Apr-10 13:30N 47°18' W 002°01'0 0.1
2018-Apr-10 13:00N 47°18' W 002°01'0 0.9
2018-Apr-10 12:30N 47°17' W 002°01'0 0.0
2018-Apr-10 11:55N 47°17' W 002°01'0 0.0
2018-Apr-10 11:28N 47°17' W 002°01'0 0.0
2018-Apr-10 10:58N 47°17' W 002°01'0 0.0
2018-Apr-10 10:31N 47°17' W 002°01'0 0.0
2018-Apr-10 09:46N 47°17' W 002°01'0 0.0
2018-Apr-10 09:25N 47°17' W 002°01'0 0.0
2018-Apr-10 08:58N 47°17' W 002°01'0 0.0
2018-Apr-10 08:28N 47°17' W 002°01'0 0.0
2018-Apr-10 08:00N 47°17' W 002°01'0 0.0
2018-Apr-10 07:28N 47°17' W 002°01'0 0.0
2018-Apr-10 06:58N 47°17' W 002°01'0 0.0
2018-Apr-10 06:30N 47°17' W 002°01'0 0.0
2018-Apr-10 06:01N 47°17' W 002°01'0 0.0
2018-Apr-10 05:31N 47°17' W 002°01'0 0.0
2018-Apr-10 04:57N 47°17' W 002°01'0 0.0
2018-Apr-10 04:21N 47°17' W 002°01'0 0.0
2018-Apr-10 04:01N 47°17' W 002°01'0 0.0
2018-Apr-10 03:28N 47°17' W 002°01'0 0.0
2018-Apr-10 03:00N 47°17' W 002°01'0 0.0
2018-Apr-10 02:25N 47°17' W 002°01'0 0.0
2018-Apr-10 02:00N 47°17' W 002°01'0 0.0
2018-Apr-10 01:31N 47°17' W 002°01'0 0.0
2018-Apr-10 01:01N 47°17' W 002°01'0 0.0
2018-Apr-10 00:30N 47°17' W 002°01'0 0.0
2018-Apr-10 00:00N 47°17' W 002°01'0 0.0
2018-Apr-09 23:30N 47°17' W 002°01'0 0.0
2018-Apr-09 23:00N 47°17' W 002°01'0 0.0
2018-Apr-09 22:06N 47°17' W 002°01'0 0.0
2018-Apr-09 21:58N 47°17' W 002°01'0 0.0
2018-Apr-09 21:21N 47°17' W 002°01'0 0.0
2018-Apr-09 20:58N 47°17' W 002°01'0 0.0
2018-Apr-09 20:31N 47°17' W 002°01'0 0.0
2018-Apr-09 19:54N 47°17' W 002°01'0 0.0
2018-Apr-09 19:30N 47°17' W 002°01'0 0.0
2018-Apr-09 19:00N 47°17' W 002°01'0 0.0
2018-Apr-09 18:30N 47°17' W 002°01'0 0.0
2018-Apr-09 18:00N 47°17' W 002°01'0 0.0
2018-Apr-09 17:24N 47°17' W 002°01'0 0.0
2018-Apr-09 16:57N 47°17' W 002°01'0 0.0
2018-Apr-09 16:24N 47°17' W 002°01'0 0.0
2018-Apr-09 15:58N 47°17' W 002°01'2 5.0
2018-Apr-09 15:30N 47°18' W 002°04'5 1.2
2018-Apr-09 11:14N 47°16' W 002°12'1 5.5
2018-Apr-09 11:00N 47°17' W 002°10'4 8.7
2018-Apr-09 10:30N 47°18' W 002°04'  

Dump ship's entire track history